createdAt,value
2022-08-14T00:00:00.416Z,1.4
2022-08-14T00:05:00.386Z,1.8
2022-08-14T00:10:50.664Z,3.6
2022-08-14T00:15:00.482Z,2.5
2022-08-14T00:20:00.859Z,0.0
2022-08-14T00:25:00.262Z,2.2
2022-08-14T00:30:00.407Z,2.2
2022-08-14T00:35:00.321Z,2.9
2022-08-14T00:40:00.915Z,2.2
2022-08-14T00:45:00.811Z,0.0
2022-08-14T00:50:00.332Z,0.0
2022-08-14T00:55:01.479Z,1.8
2022-08-14T01:00:00.343Z,1.8
2022-08-14T01:05:01.729Z,0.0
2022-08-14T01:10:00.338Z,1.8
2022-08-14T01:15:02.602Z,3.6
2022-08-14T01:20:00.325Z,1.4
2022-08-14T01:25:00.605Z,0.0
2022-08-14T01:30:05.004Z,1.8
2022-08-14T01:36:01.459Z,0.0
2022-08-14T01:40:01.588Z,1.8
2022-08-14T01:45:00.421Z,1.8
2022-08-14T01:50:02.193Z,0.0
2022-08-14T01:55:00.342Z,0.0
2022-08-14T02:00:03.435Z,1.4
2022-08-14T02:05:00.785Z,0.0
2022-08-14T02:10:00.272Z,1.1
2022-08-14T02:15:01.951Z,0.0
2022-08-14T02:20:03.131Z,0.0
2022-08-14T02:25:00.295Z,0.0
2022-08-14T02:30:03.135Z,0.0
2022-08-14T02:35:00.721Z,1.4
2022-08-14T02:40:05.742Z,0.0
2022-08-14T02:45:00.314Z,0.0
2022-08-14T02:50:00.300Z,2.9
2022-08-14T02:55:00.293Z,2.9
2022-08-14T03:00:00.322Z,4.7
2022-08-14T03:05:00.371Z,2.2
2022-08-14T03:10:27.174Z,4.0
2022-08-14T03:15:00.286Z,3.2
2022-08-14T03:20:00.856Z,2.2
2022-08-14T03:25:00.293Z,4.3
2022-08-14T03:30:14.793Z,1.4
2022-08-14T03:35:00.363Z,2.2
2022-08-14T03:40:00.888Z,3.6
2022-08-14T03:45:26.829Z,0.0
2022-08-14T03:50:02.013Z,0.0
2022-08-14T03:55:00.417Z,0.0
2022-08-14T04:00:02.166Z,0.0
2022-08-14T04:05:13.279Z,0.0
2022-08-14T04:10:03.021Z,0.0
2022-08-14T04:15:00.337Z,1.8
2022-08-14T04:20:00.338Z,2.2
2022-08-14T04:25:05.393Z,4.7
2022-08-14T04:30:00.371Z,4.7
2022-08-14T04:35:00.289Z,2.2
2022-08-14T04:40:03.509Z,0.0
2022-08-14T04:45:01.518Z,1.4
2022-08-14T04:50:04.266Z,2.2
2022-08-14T04:55:01.055Z,4.0
2022-08-14T05:00:01.270Z,2.9
2022-08-14T05:05:00.273Z,0.0
2022-08-14T05:10:16.366Z,1.4
2022-08-14T05:15:01.538Z,3.2
2022-08-14T05:20:33.536Z,2.5
2022-08-14T05:25:00.287Z,3.2
2022-08-14T05:30:00.339Z,0.0
2022-08-14T05:35:00.367Z,1.4
2022-08-14T05:40:01.313Z,1.8
2022-08-14T05:45:00.325Z,3.2
2022-08-14T05:50:00.334Z,2.5
2022-08-14T05:55:00.300Z,3.6
2022-08-14T06:00:00.479Z,2.5
2022-08-14T06:05:00.645Z,4.0
2022-08-14T06:10:04.449Z,5.0
2022-08-14T06:15:00.372Z,4.7
2022-08-14T06:20:00.281Z,6.8
2022-08-14T06:25:01.264Z,5.8
2022-08-14T06:30:00.420Z,1.8
2022-08-14T06:35:13.875Z,1.4
2022-08-14T06:40:00.564Z,0.0
2022-08-14T06:45:02.896Z,2.2
2022-08-14T06:50:00.445Z,2.5
2022-08-14T06:55:00.312Z,4.7
2022-08-14T07:00:00.784Z,0.0
2022-08-14T07:05:06.325Z,1.4
2022-08-14T07:10:00.315Z,2.5
2022-08-14T07:15:01.710Z,0.0
2022-08-14T07:20:00.383Z,6.1
2022-08-14T07:25:00.390Z,6.1
2022-08-14T07:30:03.014Z,4.0
2022-08-14T07:35:00.478Z,6.1
2022-08-14T07:40:00.964Z,5.4
2022-08-14T07:45:01.063Z,4.7
2022-08-14T07:50:01.992Z,11.2
2022-08-14T07:55:00.656Z,10.4
2022-08-14T08:00:00.744Z,2.2
2022-08-14T08:05:00.368Z,5.4
2022-08-14T08:10:02.607Z,4.3
2022-08-14T08:15:08.155Z,6.1
2022-08-14T08:20:00.402Z,5.8
2022-08-14T08:25:01.003Z,7.2
2022-08-14T08:30:00.320Z,7.2
2022-08-14T08:35:00.317Z,7.6
2022-08-14T08:40:06.092Z,14.4
2022-08-14T08:45:00.596Z,11.2
2022-08-14T08:50:01.119Z,9.0
2022-08-14T08:55:05.207Z,8.3
2022-08-14T09:00:00.370Z,14.8
2022-08-14T09:05:00.345Z,9.7
2022-08-14T09:10:01.274Z,12.6
2022-08-14T09:15:00.371Z,17.3
2022-08-14T09:20:04.372Z,10.1
2022-08-14T09:25:00.361Z,4.7
2022-08-14T09:30:00.968Z,19.1
2022-08-14T09:35:00.335Z,15.1
2022-08-14T09:40:01.035Z,15.8
2022-08-14T09:45:09.137Z,15.5
2022-08-14T09:50:00.994Z,19.8
2022-08-14T09:55:02.964Z,17.6
2022-08-14T10:00:00.791Z,14.4
2022-08-14T10:05:00.408Z,17.6
2022-08-14T10:10:16.491Z,14.8
2022-08-14T10:15:00.294Z,15.5
2022-08-14T10:20:00.889Z,11.2
2022-08-14T10:25:01.023Z,4.7
2022-08-14T10:30:00.386Z,6.1
2022-08-14T10:35:00.363Z,14.0
2022-08-14T10:40:37.169Z,13.0
2022-08-14T10:45:01.464Z,14.4
2022-08-14T10:50:00.362Z,8.6
2022-08-14T10:55:01.707Z,4.3
2022-08-14T11:00:00.372Z,9.4
2022-08-14T11:05:05.542Z,8.3
2022-08-14T11:10:00.383Z,9.0
2022-08-14T11:15:03.125Z,11.5
2022-08-14T11:20:00.383Z,16.2
2022-08-14T11:25:06.695Z,16.9
2022-08-14T11:30:49.449Z,9.7
2022-08-14T11:35:00.321Z,14.8
2022-08-14T11:40:00.731Z,13.7
2022-08-14T11:45:01.000Z,4.0
2022-08-14T11:50:00.364Z,9.7
2022-08-14T11:55:00.370Z,13.0
2022-08-14T12:00:00.361Z,14.0
2022-08-14T12:05:04.407Z,16.2
2022-08-14T12:10:00.310Z,5.8
2022-08-14T12:15:00.348Z,2.2
2022-08-14T12:20:03.531Z,8.3
2022-08-14T12:25:02.306Z,4.0
2022-08-14T12:30:00.343Z,5.8
2022-08-14T12:35:02.046Z,1.4
2022-08-14T12:40:00.677Z,12.2
2022-08-14T12:45:04.930Z,13.3
2022-08-14T12:50:01.259Z,7.9
2022-08-14T12:55:07.189Z,15.5
2022-08-14T13:00:22.254Z,6.5
2022-08-14T13:05:00.680Z,6.5
2022-08-14T13:10:00.371Z,13.0
2022-08-14T13:15:00.518Z,9.0
2022-08-14T13:20:00.317Z,13.7
2022-08-14T13:25:02.468Z,13.7
2022-08-14T13:30:10.554Z,4.7
2022-08-14T13:35:00.511Z,5.8
2022-08-14T13:40:00.906Z,6.5
2022-08-14T13:45:01.391Z,9.0
2022-08-14T13:50:00.339Z,4.7
2022-08-14T13:55:00.358Z,2.9
2022-08-14T14:00:00.622Z,1.8
2022-08-14T14:05:01.852Z,15.5
2022-08-14T14:10:06.785Z,17.3
2022-08-14T14:15:05.714Z,7.2
2022-08-14T14:20:04.768Z,17.3
2022-08-14T14:25:00.336Z,14.4
2022-08-14T14:30:03.520Z,16.9
2022-08-14T14:35:00.346Z,15.5
2022-08-14T14:40:51.195Z,9.4
2022-08-14T14:45:00.279Z,7.6
2022-08-14T14:50:00.332Z,7.9
2022-08-14T14:55:00.316Z,7.2
2022-08-14T15:00:02.399Z,3.2
2022-08-14T15:05:00.283Z,11.9
2022-08-14T15:10:00.689Z,10.8
2022-08-14T15:15:09.372Z,10.4
2022-08-14T15:20:00.343Z,9.7
2022-08-14T15:25:01.320Z,8.6
2022-08-14T15:30:00.354Z,8.6
2022-08-14T15:35:07.927Z,6.5
2022-08-14T15:40:05.765Z,6.1
2022-08-14T15:45:02.599Z,5.8
2022-08-14T15:50:01.809Z,13.0
2022-08-14T15:55:02.248Z,13.3
2022-08-14T16:00:00.455Z,11.9
2022-08-14T16:05:00.283Z,12.2
2022-08-14T16:10:29.438Z,5.4
2022-08-14T16:15:02.396Z,10.4
2022-08-14T16:20:00.860Z,5.8
2022-08-14T16:25:04.004Z,12.2
2022-08-14T16:30:05.466Z,15.5
2022-08-14T16:35:00.268Z,9.0
2022-08-14T16:40:00.673Z,7.6
2022-08-14T16:45:00.323Z,7.9
2022-08-14T16:50:09.405Z,10.1
2022-08-14T16:55:00.319Z,9.7
2022-08-14T17:00:19.606Z,10.1
2022-08-14T17:05:01.215Z,6.5
2022-08-14T17:10:12.692Z,6.1
2022-08-14T17:15:00.415Z,5.8
2022-08-14T17:20:08.806Z,8.6
2022-08-14T17:25:12.038Z,14.8
2022-08-14T17:30:01.282Z,8.3
2022-08-14T17:35:12.196Z,9.0
2022-08-14T17:40:00.726Z,6.1
2022-08-14T17:45:00.425Z,6.5
2022-08-14T17:50:01.114Z,4.3
2022-08-14T17:55:02.677Z,4.0
2022-08-14T18:00:01.811Z,5.8
2022-08-14T18:05:03.421Z,4.3
2022-08-14T18:10:32.162Z,3.2
2022-08-14T18:15:17.534Z,4.7
2022-08-14T18:20:16.123Z,5.8
2022-08-14T18:25:02.787Z,6.1
2022-08-14T18:30:31.543Z,5.0
2022-08-14T18:35:00.288Z,3.2
2022-08-14T18:40:04.747Z,4.0
2022-08-14T18:45:01.745Z,2.2
2022-08-14T18:50:00.309Z,2.5
2022-08-14T18:55:00.305Z,2.5
2022-08-14T19:00:00.358Z,4.7
2022-08-14T19:05:03.033Z,4.0
2022-08-14T19:10:00.436Z,6.1
2022-08-14T19:15:01.471Z,2.5
2022-08-14T19:20:00.344Z,0.0
2022-08-14T19:25:05.811Z,2.5
2022-08-14T19:30:00.468Z,2.9
2022-08-14T19:35:14.854Z,6.5
2022-08-14T19:40:20.204Z,7.2
2022-08-14T19:45:01.582Z,9.7
2022-08-14T19:50:30.788Z,8.3
2022-08-14T19:55:00.957Z,13.3
2022-08-14T20:00:00.571Z,7.2
2022-08-14T20:05:04.032Z,7.6
2022-08-14T20:11:02.257Z,5.0
2022-08-14T20:15:01.442Z,4.3
2022-08-14T20:20:00.373Z,4.0
2022-08-14T20:25:00.344Z,4.0
2022-08-14T20:30:33.372Z,3.2
2022-08-14T20:35:00.288Z,1.8
2022-08-14T20:40:00.662Z,2.2
2022-08-14T20:45:05.129Z,1.4
2022-08-14T20:50:20.317Z,0.0
2022-08-14T20:55:01.890Z,0.0
2022-08-14T21:00:00.355Z,0.0
2022-08-14T21:05:00.294Z,0.0
2022-08-14T21:10:32.955Z,0.0
2022-08-14T21:15:01.017Z,1.4
2022-08-14T21:20:21.543Z,0.0
2022-08-14T21:25:10.784Z,0.0
2022-08-14T21:30:01.179Z,0.0
2022-08-14T21:35:01.176Z,0.0
2022-08-14T21:40:00.753Z,0.0
2022-08-14T21:45:01.749Z,1.4
2022-08-14T21:50:00.356Z,2.5
2022-08-14T21:55:00.362Z,1.4
2022-08-14T22:00:30.690Z,3.2
2022-08-14T22:05:03.749Z,3.2
2022-08-14T22:10:05.131Z,1.4
2022-08-14T22:15:01.893Z,1.4
2022-08-14T22:20:00.390Z,0.0
2022-08-14T22:25:01.426Z,2.2
2022-08-14T22:30:00.664Z,2.2
2022-08-14T22:35:02.271Z,1.4
2022-08-14T22:40:53.938Z,0.0
2022-08-14T22:45:00.338Z,0.0
2022-08-14T22:50:29.657Z,0.0
2022-08-14T22:55:00.282Z,0.0
2022-08-14T23:00:00.364Z,0.0
2022-08-14T23:05:00.292Z,0.0
2022-08-14T23:10:31.333Z,0.0
2022-08-14T23:15:00.525Z,0.0
2022-08-14T23:20:00.323Z,0.0
2022-08-14T23:25:00.331Z,0.0
2022-08-14T23:30:00.335Z,0.0
2022-08-14T23:35:00.402Z,0.0
2022-08-14T23:40:00.614Z,0.0
2022-08-14T23:45:03.605Z,0.0
2022-08-14T23:50:32.920Z,0.0
2022-08-14T23:55:01.490Z,0.0
